createdAt,value
2022-11-17T10:50:53.954Z,2.50
2022-11-17T10:56:16.683Z,3.00
2022-11-17T11:01:30.568Z,3.10
2022-11-17T11:06:36.017Z,2.60
2022-11-17T11:11:58.151Z,2.80
2022-11-17T11:17:11.075Z,2.20
2022-11-17T11:22:40.948Z,2.80
2022-11-17T11:27:59.589Z,3.00
2022-11-17T11:33:26.038Z,2.80
2022-11-17T11:39:01.136Z,2.40
2022-11-17T11:44:26.941Z,2.20
2022-11-17T11:49:49.498Z,2.00
2022-11-17T11:55:05.508Z,1.90
2022-11-17T12:00:19.187Z,1.40
2022-11-17T12:05:41.222Z,1.50
2022-11-17T12:11:32.854Z,1.70
2022-11-17T12:16:37.432Z,2.00
2022-11-17T12:21:41.728Z,2.30
2022-11-17T12:26:45.550Z,1.90
2022-11-17T12:32:01.791Z,2.10
2022-11-17T12:37:26.676Z,2.10
2022-11-17T12:42:33.579Z,3.40
2022-11-17T12:48:04.810Z,2.40
2022-11-17T12:53:21.569Z,1.80
2022-11-17T12:58:51.701Z,1.60
2022-11-17T13:04:01.678Z,1.60
2022-11-17T13:09:11.887Z,2.30
2022-11-17T13:14:17.676Z,2.20
2022-11-17T13:19:37.933Z,2.60
2022-11-17T13:24:48.306Z,3.30
2022-11-17T13:30:16.606Z,2.50
2022-11-17T13:35:29.950Z,3.30
2022-11-17T13:40:36.129Z,3.60
2022-11-17T13:45:40.799Z,2.70
2022-11-17T13:50:44.596Z,3.70
2022-11-17T13:55:48.216Z,3.00
2022-11-17T14:00:57.957Z,3.60
2022-11-17T14:06:03.754Z,5.10
2022-11-17T14:11:10.538Z,8.40
2022-11-17T14:16:35.212Z,4.80
2022-11-17T14:22:14.311Z,5.20
2022-11-17T14:27:30.681Z,5.60
2022-11-17T14:32:35.162Z,4.10
2022-11-17T14:37:38.677Z,3.50
2022-11-17T14:42:42.751Z,4.00
2022-11-17T14:47:46.422Z,4.30
2022-11-17T14:52:49.844Z,4.80
2022-11-17T14:57:53.765Z,11.20
2022-11-17T15:02:57.309Z,9.70
2022-11-17T15:08:00.896Z,17.40
2022-11-17T15:13:04.416Z,10.80
2022-11-17T15:18:12.340Z,19.40
2022-11-17T15:23:16.157Z,9.90
2022-11-17T15:28:23.071Z,20.80
2022-11-17T15:33:26.686Z,17.80
2022-11-17T15:38:31.669Z,18.40
2022-11-17T15:43:37.915Z,12.00
2022-11-17T15:48:45.772Z,9.10
2022-11-17T15:53:51.698Z,7.00
2022-11-17T15:59:05.453Z,13.20
2022-11-17T16:04:12.348Z,10.00
2022-11-17T16:09:16.815Z,12.10
2022-11-17T16:14:20.524Z,13.30
2022-11-17T16:19:23.916Z,8.40
2022-11-17T16:24:27.355Z,10.40
2022-11-17T16:29:31.321Z,7.90
2022-11-17T16:34:34.674Z,15.00
2022-11-17T16:39:38.125Z,14.90
2022-11-17T16:44:41.560Z,8.60
2022-11-17T16:49:50.512Z,5.90
2022-11-17T16:54:57.237Z,6.80
2022-11-17T17:00:04.317Z,8.40
2022-11-17T17:05:08.142Z,9.70
2022-11-17T17:10:11.989Z,11.30
2022-11-17T17:15:15.730Z,9.90
2022-11-17T17:20:19.125Z,11.20
2022-11-17T17:25:22.536Z,7.00
2022-11-17T17:30:25.985Z,6.20
2022-11-17T17:35:29.359Z,9.30
2022-11-17T17:40:34.310Z,10.10
2022-11-17T17:45:38.128Z,9.20
2022-11-17T17:50:41.679Z,13.20
2022-11-17T17:55:45.064Z,18.10
2022-11-17T18:00:50.114Z,28.70
2022-11-17T18:05:53.547Z,12.60
2022-11-17T18:11:01.863Z,15.30
2022-11-17T18:16:10.493Z,8.50
2022-11-17T18:21:18.926Z,9.00
2022-11-17T18:26:34.114Z,7.30
2022-11-17T18:31:38.414Z,20.40
2022-11-17T18:36:42.155Z,16.50
2022-11-17T18:41:45.759Z,8.00
2022-11-17T18:46:49.213Z,5.30
2022-11-17T18:51:52.619Z,5.30
2022-11-17T18:56:56.497Z,4.00
2022-11-17T19:02:00.294Z,9.70
2022-11-17T19:07:04.274Z,13.10
2022-11-17T19:12:10.024Z,9.70
2022-11-17T19:17:13.579Z,11.20
2022-11-17T19:22:17.167Z,8.30
2022-11-17T19:27:20.611Z,8.40
2022-11-17T19:32:24.126Z,7.00
2022-11-17T19:37:27.545Z,5.20
2022-11-17T19:42:30.979Z,4.70
2022-11-17T19:47:36.014Z,8.30
2022-11-17T19:52:39.527Z,8.00
2022-11-17T19:57:43.044Z,8.00
2022-11-17T20:02:46.447Z,3.80
2022-11-17T20:07:49.969Z,4.90
2022-11-17T20:12:53.486Z,2.30
2022-11-17T20:17:57.216Z,4.10
2022-11-17T20:23:00.625Z,8.70
2022-11-17T20:28:04.244Z,9.20
2022-11-17T20:33:08.069Z,3.30
2022-11-17T20:38:14.662Z,12.60
2022-11-17T20:43:19.174Z,13.70
2022-11-17T20:48:24.758Z,7.00
2022-11-17T20:53:29.468Z,12.20
2022-11-17T20:58:34.047Z,3.00
2022-11-17T21:03:37.531Z,2.20
2022-11-17T21:08:42.803Z,3.00
2022-11-17T21:13:46.329Z,2.00
2022-11-17T21:18:50.049Z,3.00
2022-11-17T21:23:55.108Z,2.40
2022-11-17T21:29:04.850Z,2.20
2022-11-17T21:34:16.917Z,4.40
2022-11-17T21:39:20.400Z,3.70
2022-11-17T21:44:23.913Z,2.50
2022-11-17T21:49:27.633Z,2.10
2022-11-17T21:54:31.149Z,2.40
2022-11-17T21:59:34.665Z,2.20
2022-11-17T22:04:38.490Z,0.70
2022-11-17T22:09:41.904Z,2.70
2022-11-17T22:14:45.315Z,1.80
2022-11-17T22:19:48.762Z,2.60
2022-11-17T22:24:52.249Z,0.80
2022-11-17T22:29:55.766Z,1.90
2022-11-17T22:35:02.047Z,1.70
2022-11-17T22:40:07.029Z,1.80
2022-11-17T22:45:11.134Z,0.70
2022-11-17T22:50:14.550Z,1.50
2022-11-17T22:55:18.260Z,1.30
2022-11-17T23:00:21.780Z,1.50
2022-11-17T23:05:25.235Z,1.70
2022-11-17T23:10:29.357Z,1.90
2022-11-17T23:15:32.782Z,1.20
2022-11-17T23:20:36.811Z,0.90
2022-11-17T23:25:40.165Z,1.20
2022-11-17T23:30:43.797Z,1.40
2022-11-17T23:35:47.422Z,1.60
2022-11-17T23:40:52.061Z,1.60
2022-11-17T23:45:56.632Z,1.80
2022-11-17T23:51:09.331Z,2.10
2022-11-17T23:56:13.977Z,2.70
